In Rescue
 
Open Full Screen Window  High Contrast Mode
September 18, 2020 11:14 PM EDT
Weather Information
Wind Direction
  ---
Wind Speed
  00 kt (0 mph)
Wind Gust
  00 kt (0 mph)
Altimeter
30.38 in
Visibility
10 SM
Temperature
01° C
34° F
Dewpoint
00° C
32° F
Humidity
93%
Sky Condition
Clear
VFR

METAR KCAD 190314Z AUTO 00000KT 10SM CLR 01/00 A3038 RMK AO2 T00071004

FAA Disclaimer: The data displayed is for advisory purposes only and is not to be used for flight planning or operations.